BIVM

Vestmannaeyjar Airport

Vestmannaeyjar, Iceland
METAR BIVM 241800Z 21024G34KT 9999 FEW015 02/01 Q1007
Observed Flight Rules
Feb-24 @ 18:00 UTC (2 hours ago) Visual Flight Rules
Wind Visibility Clouds
210° at 24 knots
 Gusting to 34 knots
10,000+ meters
  • Few at 1,500' AGL
Temperatures Readings
Current 2°C / 36°F
Dewpoint 1°C / 34°F
Humidity 93%
Altimeter 29.73" Hg
Pressure 1007 hPa
Elevation 124
METAR BIVM 241800Z 21024G34KT 9999 FEW015 02/01 Q1007
Observed Flight Rules
Feb-24 @ 18:00 UTC
(2 hours ago)
VFR
Wind Visibility
210° at 24 knots
 Gusting to 34 knots
10,000+ meters
Clouds
  • Few at 1,500' AGL
Temperature Dewpoint
2°C / 36°F 1°C / 34°F
Humidity Altimeter Pressure
93% 29.73" Hg 1007 hPa